sensor_id;sensor_type;location;lat;lon;timestamp;pressure;altitude;pressure_sealevel;temperature;humidity
50684;BME280;36654;45.042;38.994;2024-02-28T00:00:55;102088.38;;;3.16;52.01
50684;BME280;36654;45.042;38.994;2024-02-28T00:03:21;102081.41;;;3.16;52.06
50684;BME280;36654;45.042;38.994;2024-02-28T00:05:49;102083.66;;;3.10;52.25
50684;BME280;36654;45.042;38.994;2024-02-28T00:08:14;102084.88;;;3.02;52.26
50684;BME280;36654;45.042;38.994;2024-02-28T00:10:42;102092.72;;;3.02;52.33
50684;BME280;36654;45.042;38.994;2024-02-28T00:13:08;102043.25;;;2.65;52.55
50684;BME280;36654;45.042;38.994;2024-02-28T00:15:33;102092.47;;;2.97;52.54
50684;BME280;36654;45.042;38.994;2024-02-28T00:17:59;102093.47;;;2.86;52.59
50684;BME280;36654;45.042;38.994;2024-02-28T00:20:25;102102.53;;;2.91;52.89
50684;BME280;36654;45.042;38.994;2024-02-28T00:22:52;102079.19;;;2.81;52.89
50684;BME280;36654;45.042;38.994;2024-02-28T00:25:18;102091.69;;;2.85;52.96
50684;BME280;36654;45.042;38.994;2024-02-28T00:27:44;102091.09;;;2.76;53.17
50684;BME280;36654;45.042;38.994;2024-02-28T00:30:10;102092.69;;;2.74;53.32
50684;BME280;36654;45.042;38.994;2024-02-28T00:32:35;102102.25;;;2.73;53.46
50684;BME280;36654;45.042;38.994;2024-02-28T00:35:01;102096.84;;;2.70;53.49
50684;BME280;36654;45.042;38.994;2024-02-28T00:37:27;102117.59;;;2.67;53.58
50684;BME280;36654;45.042;38.994;2024-02-28T00:39:53;102112.34;;;2.67;53.77
50684;BME280;36654;45.042;38.994;2024-02-28T00:42:19;102118.50;;;2.68;53.76
50684;BME280;36654;45.042;38.994;2024-02-28T00:44:45;102115.75;;;2.66;53.72
50684;BME280;36654;45.042;38.994;2024-02-28T00:47:10;102121.41;;;2.59;53.92
50684;BME280;36654;45.042;38.994;2024-02-28T00:49:36;102103.69;;;2.55;54.15
50684;BME280;36654;45.042;38.994;2024-02-28T00:52:02;102090.19;;;2.49;53.99
50684;BME280;36654;45.042;38.994;2024-02-28T00:54:28;102036.63;;;2.17;54.13
50684;BME280;36654;45.042;38.994;2024-02-28T00:56:54;102099.25;;;2.54;54.28
50684;BME280;36654;45.042;38.994;2024-02-28T00:59:19;102097.03;;;2.47;54.25
50684;BME280;36654;45.042;38.994;2024-02-28T01:01:45;102038.88;;;2.11;54.36
50684;BME280;36654;45.042;38.994;2024-02-28T01:04:10;102097.75;;;2.44;54.30
50684;BME280;36654;45.042;38.994;2024-02-28T01:06:37;102079.13;;;2.26;54.36
50684;BME280;36654;45.042;38.994;2024-02-28T01:09:03;102108.59;;;2.37;54.62
50684;BME280;36654;45.042;38.994;2024-02-28T01:11:30;102099.28;;;2.27;54.66
50684;BME280;36654;45.042;38.994;2024-02-28T01:13:55;102098.44;;;2.28;54.95
50684;BME280;36654;45.042;38.994;2024-02-28T01:16:21;102080.41;;;2.20;55.01
50684;BME280;36654;45.042;38.994;2024-02-28T01:18:47;102065.41;;;2.04;55.10
50684;BME280;36654;45.042;38.994;2024-02-28T01:21:12;102101.47;;;2.21;55.18
50684;BME280;36654;45.042;38.994;2024-02-28T01:23:38;102056.16;;;1.82;55.11
50684;BME280;36654;45.042;38.994;2024-02-28T01:26:04;102093.00;;;2.12;55.23
50684;BME280;36654;45.042;38.994;2024-02-28T01:28:31;102102.66;;;2.13;55.60
50684;BME280;36654;45.042;38.994;2024-02-28T01:30:56;101990.91;;;1.45;55.56
50684;BME280;36654;45.042;38.994;2024-02-28T01:33:23;102088.88;;;2.02;55.68
50684;BME280;36654;45.042;38.994;2024-02-28T01:35:49;102097.81;;;2.06;55.87
50684;BME280;36654;45.042;38.994;2024-02-28T01:38:14;102091.56;;;1.90;56.07
50684;BME280;36654;45.042;38.994;2024-02-28T01:40:47;102094.38;;;1.93;56.08
50684;BME280;36654;45.042;38.994;2024-02-28T01:43:13;102103.81;;;1.91;56.28
50684;BME280;36654;45.042;38.994;2024-02-28T01:45:38;102099.22;;;1.87;56.51
50684;BME280;36654;45.042;38.994;2024-02-28T01:48:07;102103.22;;;1.82;56.64
50684;BME280;36654;45.042;38.994;2024-02-28T01:50:35;102123.44;;;1.85;56.65
50684;BME280;36654;45.042;38.994;2024-02-28T01:53:02;102116.28;;;1.82;56.82
50684;BME280;36654;45.042;38.994;2024-02-28T01:55:29;102088.69;;;1.74;56.98
50684;BME280;36654;45.042;38.994;2024-02-28T01:57:55;102105.72;;;1.81;56.98
50684;BME280;36654;45.042;38.994;2024-02-28T02:00:21;102095.53;;;1.72;57.01
50684;BME280;36654;45.042;38.994;2024-02-28T02:02:48;102112.53;;;1.79;57.46
50684;BME280;36654;45.042;38.994;2024-02-28T02:05:14;102071.31;;;1.49;57.56
50684;BME280;36654;45.042;38.994;2024-02-28T02:07:42;102088.53;;;1.59;57.48
50684;BME280;36654;45.042;38.994;2024-02-28T02:10:08;102101.75;;;1.61;57.83
50684;BME280;36654;45.042;38.994;2024-02-28T02:12:37;102130.13;;;1.68;57.83
50684;BME280;36654;45.042;38.994;2024-02-28T02:15:03;102134.31;;;1.66;58.04
50684;BME280;36654;45.042;38.994;2024-02-28T02:17:29;102131.50;;;1.63;58.34
50684;BME280;36654;45.042;38.994;2024-02-28T02:19:55;102127.88;;;1.61;58.28
50684;BME280;36654;45.042;38.994;2024-02-28T02:22:22;102126.97;;;1.60;58.19
50684;BME280;36654;45.042;38.994;2024-02-28T02:24:48;102129.25;;;1.56;58.24
50684;BME280;36654;45.042;38.994;2024-02-28T02:27:14;102137.31;;;1.59;58.43
50684;BME280;36654;45.042;38.994;2024-02-28T02:29:40;102134.50;;;1.56;58.54
50684;BME280;36654;45.042;38.994;2024-02-28T02:32:05;102126.59;;;1.42;58.84
50684;BME280;36654;45.042;38.994;2024-02-28T02:34:32;102148.13;;;1.51;58.88
50684;BME280;36654;45.042;38.994;2024-02-28T02:36:58;102132.72;;;1.43;58.89
50684;BME280;36654;45.042;38.994;2024-02-28T02:39:23;102155.56;;;1.45;59.14
50684;BME280;36654;45.042;38.994;2024-02-28T02:41:49;102150.13;;;1.42;59.47
50684;BME280;36654;45.042;38.994;2024-02-28T02:44:15;102152.50;;;1.39;59.69
50684;BME280;36654;45.042;38.994;2024-02-28T02:46:41;102151.38;;;1.36;59.81
50684;BME280;36654;45.042;38.994;2024-02-28T02:49:06;102168.44;;;1.31;59.87
50684;BME280;36654;45.042;38.994;2024-02-28T02:51:32;102157.31;;;1.33;59.89
50684;BME280;36654;45.042;38.994;2024-02-28T02:53:57;102166.16;;;1.35;60.10
50684;BME280;36654;45.042;38.994;2024-02-28T02:56:23;102157.78;;;1.27;60.17
50684;BME280;36654;45.042;38.994;2024-02-28T02:58:49;102157.66;;;1.26;60.36
50684;BME280;36654;45.042;38.994;2024-02-28T03:01:14;102125.59;;;1.03;60.29
50684;BME280;36654;45.042;38.994;2024-02-28T03:03:40;102169.69;;;1.24;60.69
50684;BME280;36654;45.042;38.994;2024-02-28T03:06:06;102103.38;;;0.85;60.62
50684;BME280;36654;45.042;38.994;2024-02-28T03:08:31;102151.44;;;1.12;60.77
50684;BME280;36654;45.042;38.994;2024-02-28T03:10:58;102165.19;;;1.10;60.91
50684;BME280;36654;45.042;38.994;2024-02-28T03:13:23;102164.41;;;1.11;60.98
50684;BME280;36654;45.042;38.994;2024-02-28T03:15:50;102188.94;;;1.13;61.15
50684;BME280;36654;45.042;38.994;2024-02-28T03:18:16;102172.13;;;0.97;61.43
50684;BME280;36654;45.042;38.994;2024-02-28T03:20:42;102191.91;;;1.05;61.46
50684;BME280;36654;45.042;38.994;2024-02-28T03:23:08;102180.63;;;1.06;61.48
50684;BME280;36654;45.042;38.994;2024-02-28T03:25:33;102188.03;;;1.00;61.80
50684;BME280;36654;45.042;38.994;2024-02-28T03:28:03;102182.34;;;0.94;61.99
50684;BME280;36654;45.042;38.994;2024-02-28T03:30:28;102136.78;;;0.66;62.03
50684;BME280;36654;45.042;38.994;2024-02-28T03:32:54;102197.34;;;0.97;62.08
50684;BME280;36654;45.042;38.994;2024-02-28T03:35:20;102193.72;;;0.95;62.11
50684;BME280;36654;45.042;38.994;2024-02-28T03:37:45;102206.88;;;0.84;62.17
50684;BME280;36654;45.042;38.994;2024-02-28T03:40:12;102197.81;;;0.91;62.43
50684;BME280;36654;45.042;38.994;2024-02-28T03:42:37;102207.44;;;0.92;62.44
50684;BME280;36654;45.042;38.994;2024-02-28T03:45:03;102202.81;;;0.88;62.61
50684;BME280;36654;45.042;38.994;2024-02-28T03:47:30;102205.63;;;0.79;62.68
50684;BME280;36654;45.042;38.994;2024-02-28T03:49:55;102195.31;;;0.81;62.79
50684;BME280;36654;45.042;38.994;2024-02-28T03:52:23;102193.38;;;0.78;63.07
50684;BME280;36654;45.042;38.994;2024-02-28T03:54:50;102151.31;;;0.50;63.19
50684;BME280;36654;45.042;38.994;2024-02-28T03:57:16;102202.81;;;0.76;63.30
50684;BME280;36654;45.042;38.994;2024-02-28T03:59:41;102205.06;;;0.72;63.68
50684;BME280;36654;45.042;38.994;2024-02-28T04:02:07;102155.69;;;0.39;63.45
50684;BME280;36654;45.042;38.994;2024-02-28T04:04:32;102212.13;;;0.73;63.64
50684;BME280;36654;45.042;38.994;2024-02-28T04:06:59;102215.28;;;0.69;63.76
50684;BME280;36654;45.042;38.994;2024-02-28T04:09:24;102210.88;;;0.68;64.04
50684;BME280;36654;45.042;38.994;2024-02-28T04:11:50;102210.28;;;0.72;63.86
50684;BME280;36654;45.042;38.994;2024-02-28T04:14:16;102208.94;;;0.77;63.94
50684;BME280;36654;45.042;38.994;2024-02-28T04:16:43;102217.56;;;0.99;63.64
50684;BME280;36654;45.042;38.994;2024-02-28T04:19:10;102211.22;;;1.07;63.24
50684;BME280;36654;45.042;38.994;2024-02-28T04:21:36;102226.03;;;1.32;62.73
50684;BME280;36654;45.042;38.994;2024-02-28T04:24:02;102224.28;;;1.44;62.29
50684;BME280;36654;45.042;38.994;2024-02-28T04:26:28;102219.50;;;1.62;62.00
50684;BME280;36654;45.042;38.994;2024-02-28T04:28:54;102233.31;;;1.73;61.28
50684;BME280;36654;45.042;38.994;2024-02-28T04:31:21;102176.81;;;1.38;61.11
50684;BME280;36654;45.042;38.994;2024-02-28T04:33:47;102224.78;;;1.39;61.35
50684;BME280;36654;45.042;38.994;2024-02-28T04:36:12;102166.47;;;0.91;61.68
50684;BME280;36654;45.042;38.994;2024-02-28T04:38:38;102231.16;;;1.19;62.11
50684;BME280;36654;45.042;38.994;2024-02-28T04:41:04;102232.31;;;1.11;62.50
50684;BME280;36654;45.042;38.994;2024-02-28T04:43:29;102235.28;;;1.03;62.91
50684;BME280;36654;45.042;38.994;2024-02-28T04:45:55;102222.13;;;0.90;63.30
50684;BME280;36654;45.042;38.994;2024-02-28T04:48:21;102234.59;;;0.94;63.44
50684;BME280;36654;45.042;38.994;2024-02-28T04:50:47;102233.69;;;0.94;63.59
50684;BME280;36654;45.042;38.994;2024-02-28T04:53:12;102234.38;;;0.91;63.59
50684;BME280;36654;45.042;38.994;2024-02-28T04:55:38;102220.53;;;0.80;63.67
50684;BME280;36654;45.042;38.994;2024-02-28T04:58:03;102223.22;;;0.82;63.81
50684;BME280;36654;45.042;38.994;2024-02-28T05:00:29;102238.47;;;0.88;63.99
50684;BME280;36654;45.042;38.994;2024-02-28T05:02:55;102247.19;;;0.88;64.04
50684;BME280;36654;45.042;38.994;2024-02-28T05:05:21;102274.91;;;0.86;64.11
50684;BME280;36654;45.042;38.994;2024-02-28T05:07:46;102251.84;;;0.92;63.91
50684;BME280;36654;45.042;38.994;2024-02-28T05:10:12;102266.06;;;0.96;64.05
50684;BME280;36654;45.042;38.994;2024-02-28T05:12:38;102256.38;;;0.95;64.07
50684;BME280;36654;45.042;38.994;2024-02-28T05:15:05;102276.16;;;0.91;63.83
50684;BME280;36654;45.042;38.994;2024-02-28T05:17:32;102275.13;;;0.89;64.06
50684;BME280;36654;45.042;38.994;2024-02-28T05:19:58;102262.06;;;0.89;64.19
50684;BME280;36654;45.042;38.994;2024-02-28T05:22:23;102294.44;;;0.91;64.27
50684;BME280;36654;45.042;38.994;2024-02-28T05:24:49;102273.09;;;0.85;64.33
50684;BME280;36654;45.042;38.994;2024-02-28T05:27:15;102272.50;;;0.77;64.38
50684;BME280;36654;45.042;38.994;2024-02-28T05:29:40;102277.50;;;0.86;64.47
50684;BME280;36654;45.042;38.994;2024-02-28T05:32:08;102221.16;;;0.54;64.54
50684;BME280;36654;45.042;38.994;2024-02-28T05:34:34;102271.25;;;0.84;64.45
50684;BME280;36654;45.042;38.994;2024-02-28T05:37:00;102241.63;;;0.72;64.42
50684;BME280;36654;45.042;38.994;2024-02-28T05:39:27;102258.41;;;0.87;64.46
50684;BME280;36654;45.042;38.994;2024-02-28T05:41:56;102272.72;;;0.92;64.15
50684;BME280;36654;45.042;38.994;2024-02-28T05:44:23;102285.44;;;0.99;64.36
50684;BME280;36654;45.042;38.994;2024-02-28T05:46:50;102299.44;;;1.12;64.04
50684;BME280;36654;45.042;38.994;2024-02-28T05:49:16;102296.25;;;1.16;63.99
50684;BME280;36654;45.042;38.994;2024-02-28T05:51:41;102293.66;;;1.16;63.76
50684;BME280;36654;45.042;38.994;2024-02-28T05:54:07;102277.06;;;1.03;63.73
50684;BME280;36654;45.042;38.994;2024-02-28T05:56:33;102312.03;;;1.17;63.54
50684;BME280;36654;45.042;38.994;2024-02-28T05:58:58;102277.88;;;1.02;63.51
50684;BME280;36654;45.042;38.994;2024-02-28T06:01:24;102257.66;;;0.88;63.45
50684;BME280;36654;45.042;38.994;2024-02-28T06:03:50;102301.69;;;1.19;63.23
50684;BME280;36654;45.042;38.994;2024-02-28T06:06:16;102310.91;;;1.14;63.22
50684;BME280;36654;45.042;38.994;2024-02-28T06:08:42;102298.41;;;1.10;63.35
50684;BME280;36654;45.042;38.994;2024-02-28T06:11:08;102305.22;;;1.19;63.10
50684;BME280;36654;45.042;38.994;2024-02-28T06:13:35;102304.78;;;1.25;63.14
50684;BME280;36654;45.042;38.994;2024-02-28T06:16:01;102282.16;;;1.14;62.92
50684;BME280;36654;45.042;38.994;2024-02-28T06:18:29;102312.50;;;1.35;62.59
50684;BME280;36654;45.042;38.994;2024-02-28T06:20:59;102311.13;;;1.40;62.51
50684;BME280;36654;45.042;38.994;2024-02-28T06:23:25;102304.06;;;1.39;62.40
50684;BME280;36654;45.042;38.994;2024-02-28T06:25:50;102323.03;;;1.48;62.47
50684;BME280;36654;45.042;38.994;2024-02-28T06:28:16;102311.44;;;1.57;62.45
50684;BME280;36654;45.042;38.994;2024-02-28T06:30:45;102304.06;;;1.51;62.02
50684;BME280;36654;45.042;38.994;2024-02-28T06:33:12;102315.06;;;1.59;61.96
50684;BME280;36654;45.042;38.994;2024-02-28T06:35:38;102294.63;;;1.53;61.94
50684;BME280;36654;45.042;38.994;2024-02-28T06:38:04;102313.69;;;1.64;61.74
50684;BME280;36654;45.042;38.994;2024-02-28T06:40:29;102331.22;;;1.65;61.61
50684;BME280;36654;45.042;38.994;2024-02-28T06:42:55;102327.00;;;1.67;61.53
50684;BME280;36654;45.042;38.994;2024-02-28T06:45:21;102324.28;;;1.65;61.38
50684;BME280;36654;45.042;38.994;2024-02-28T06:47:47;102306.06;;;1.67;61.39
50684;BME280;36654;45.042;38.994;2024-02-28T06:50:13;102320.63;;;1.75;61.28
50684;BME280;36654;45.042;38.994;2024-02-28T06:52:39;102295.41;;;1.64;61.22
50684;BME280;36654;45.042;38.994;2024-02-28T06:55:05;102330.81;;;1.84;61.01
50684;BME280;36654;45.042;38.994;2024-02-28T06:57:42;102241.81;;;1.45;60.94
50684;BME280;36654;45.042;38.994;2024-02-28T07:00:09;102319.66;;;1.86;60.84
50684;BME280;36654;45.042;38.994;2024-02-28T07:02:37;102310.44;;;1.91;60.92
50684;BME280;36654;45.042;38.994;2024-02-28T07:05:03;102259.25;;;1.70;60.90
50684;BME280;36654;45.042;38.994;2024-02-28T07:07:32;102342.34;;;2.11;60.67
50684;BME280;36654;45.042;38.994;2024-02-28T07:09:58;102319.81;;;2.13;60.29
50684;BME280;36654;45.042;38.994;2024-02-28T07:12:24;102303.69;;;2.07;60.34
50684;BME280;36654;45.042;38.994;2024-02-28T07:14:50;102330.34;;;2.26;60.24
50684;BME280;36654;45.042;38.994;2024-02-28T07:17:16;102319.09;;;2.27;59.99
50684;BME280;36654;45.042;38.994;2024-02-28T07:19:42;102314.75;;;2.28;59.78
50684;BME280;36654;45.042;38.994;2024-02-28T07:22:07;102346.34;;;2.43;59.82
50684;BME280;36654;45.042;38.994;2024-02-28T07:24:33;102341.72;;;2.52;59.85
50684;BME280;36654;45.042;38.994;2024-02-28T07:26:59;102342.16;;;2.58;59.44
50684;BME280;36654;45.042;38.994;2024-02-28T07:29:28;102346.69;;;2.61;59.20
50684;BME280;36654;45.042;38.994;2024-02-28T07:31:53;102333.44;;;2.71;58.93
50684;BME280;36654;45.042;38.994;2024-02-28T07:34:19;102337.91;;;2.85;58.80
50684;BME280;36654;45.042;38.994;2024-02-28T07:36:46;102340.03;;;3.04;58.10
50684;BME280;36654;45.042;38.994;2024-02-28T07:39:11;102335.63;;;3.16;57.63
50684;BME280;36654;45.042;38.994;2024-02-28T07:41:40;102295.69;;;2.94;57.06
50684;BME280;36654;45.042;38.994;2024-02-28T07:44:09;102329.00;;;3.35;56.60
50684;BME280;36654;45.042;38.994;2024-02-28T07:46:35;102338.75;;;3.51;56.37
50684;BME280;36654;45.042;38.994;2024-02-28T07:49:01;102328.34;;;3.65;55.96
50684;BME280;36654;45.042;38.994;2024-02-28T07:51:27;102338.31;;;3.71;56.09
50684;BME280;36654;45.042;38.994;2024-02-28T07:53:56;102345.25;;;3.84;55.34
50684;BME280;36654;45.042;38.994;2024-02-28T07:56:24;102338.22;;;3.83;55.32
50684;BME280;36654;45.042;38.994;2024-02-28T07:58:50;102349.69;;;3.98;54.72
50684;BME280;36654;45.042;38.994;2024-02-28T08:01:16;102357.03;;;4.04;54.55
50684;BME280;36654;45.042;38.994;2024-02-28T08:03:42;102338.75;;;4.05;54.53
50684;BME280;36654;45.042;38.994;2024-02-28T08:06:08;102339.78;;;4.07;54.11
50684;BME280;36654;45.042;38.994;2024-02-28T08:08:35;102302.84;;;4.04;53.97
50684;BME280;36654;45.042;38.994;2024-02-28T08:11:00;102356.13;;;4.31;54.04
50684;BME280;36654;45.042;38.994;2024-02-28T08:13:26;102346.09;;;4.39;53.38
50684;BME280;36654;45.042;38.994;2024-02-28T08:15:55;102339.34;;;4.43;53.36
50684;BME280;36654;45.042;38.994;2024-02-28T08:18:21;102354.38;;;4.45;53.29
50684;BME280;36654;45.042;38.994;2024-02-28T08:20:47;102351.16;;;4.49;53.26
50684;BME280;36654;45.042;38.994;2024-02-28T08:23:12;102362.13;;;4.57;52.65
50684;BME280;36654;45.042;38.994;2024-02-28T08:25:38;102333.59;;;4.63;52.56
50684;BME280;36654;45.042;38.994;2024-02-28T08:28:04;102334.69;;;4.67;52.72
50684;BME280;36654;45.042;38.994;2024-02-28T08:30:30;102328.44;;;4.65;52.49
50684;BME280;36654;45.042;38.994;2024-02-28T08:32:56;102344.84;;;4.75;52.70
50684;BME280;36654;45.042;38.994;2024-02-28T08:35:23;102334.03;;;4.71;52.52
50684;BME280;36654;45.042;38.994;2024-02-28T08:37:52;102325.25;;;4.70;52.53
50684;BME280;36654;45.042;38.994;2024-02-28T08:40:18;102341.88;;;4.84;52.52
50684;BME280;36654;45.042;38.994;2024-02-28T08:42:43;102329.41;;;4.82;52.28
50684;BME280;36654;45.042;38.994;2024-02-28T08:45:09;102328.47;;;4.94;52.17
50684;BME280;36654;45.042;38.994;2024-02-28T08:47:38;102343.06;;;5.04;51.71
50684;BME280;36654;45.042;38.994;2024-02-28T08:50:04;102344.75;;;5.04;51.74
50684;BME280;36654;45.042;38.994;2024-02-28T08:52:30;102337.06;;;5.07;51.72
50684;BME280;36654;45.042;38.994;2024-02-28T08:54:55;102299.00;;;4.85;51.74
50684;BME280;36654;45.042;38.994;2024-02-28T08:57:21;102341.50;;;5.23;51.68
50684;BME280;36654;45.042;38.994;2024-02-28T08:59:49;102343.94;;;5.34;51.43
50684;BME280;36654;45.042;38.994;2024-02-28T09:02:15;102355.34;;;5.50;51.03
50684;BME280;36654;45.042;38.994;2024-02-28T09:04:42;102343.19;;;5.52;50.68
50684;BME280;36654;45.042;38.994;2024-02-28T09:07:09;102325.00;;;5.56;50.87
50684;BME280;36654;45.042;38.994;2024-02-28T09:09:34;102347.69;;;5.69;50.65
50684;BME280;36654;45.042;38.994;2024-02-28T09:12:03;102326.44;;;5.66;50.17
50684;BME280;36654;45.042;38.994;2024-02-28T09:14:32;102325.53;;;5.66;50.26
50684;BME280;36654;45.042;38.994;2024-02-28T09:16:57;102348.44;;;5.83;50.20
50684;BME280;36654;45.042;38.994;2024-02-28T09:19:29;102357.59;;;5.90;49.55
50684;BME280;36654;45.042;38.994;2024-02-28T09:21:55;102300.97;;;5.81;49.55
50684;BME280;36654;45.042;38.994;2024-02-28T09:24:20;102333.47;;;6.13;49.19
50684;BME280;36654;45.042;38.994;2024-02-28T09:26:46;102333.00;;;6.20;48.99
50684;BME280;36654;45.042;38.994;2024-02-28T09:29:11;102319.56;;;6.16;48.97
50684;BME280;36654;45.042;38.994;2024-02-28T09:31:37;102327.88;;;6.23;48.71
50684;BME280;36654;45.042;38.994;2024-02-28T09:34:03;102343.44;;;6.35;48.91
50684;BME280;36654;45.042;38.994;2024-02-28T09:36:34;102347.25;;;6.40;48.87
50684;BME280;36654;45.042;38.994;2024-02-28T09:39:05;102325.31;;;6.41;48.80
50684;BME280;36654;45.042;38.994;2024-02-28T09:41:31;102327.41;;;6.47;48.74
50684;BME280;36654;45.042;38.994;2024-02-28T09:43:57;102337.47;;;6.54;48.54
50684;BME280;36654;45.042;38.994;2024-02-28T09:46:24;102337.75;;;6.60;48.33
50684;BME280;36654;45.042;38.994;2024-02-28T09:48:50;102326.56;;;6.64;48.16
50684;BME280;36654;45.042;38.994;2024-02-28T09:51:18;102317.97;;;6.68;47.91
50684;BME280;36654;45.042;38.994;2024-02-28T09:53:46;102309.25;;;6.69;47.81
50684;BME280;36654;45.042;38.994;2024-02-28T09:56:12;102306.88;;;6.74;47.76
50684;BME280;36654;45.042;38.994;2024-02-28T09:58:38;102325.72;;;6.82;47.83
50684;BME280;36654;45.042;38.994;2024-02-28T10:01:06;102301.81;;;6.79;47.79
50684;BME280;36654;45.042;38.994;2024-02-28T10:03:36;102264.97;;;6.62;47.50
50684;BME280;36654;45.042;38.994;2024-02-28T10:06:03;102313.06;;;6.93;47.47
50684;BME280;36654;45.042;38.994;2024-02-28T10:08:30;102314.13;;;6.96;47.66
50684;BME280;36654;45.042;38.994;2024-02-28T10:10:57;102304.03;;;6.87;47.67
50684;BME280;36654;45.042;38.994;2024-02-28T10:13:23;102262.63;;;6.68;47.77
50684;BME280;36654;45.042;38.994;2024-02-28T10:15:49;102315.88;;;6.96;47.91
50684;BME280;36654;45.042;38.994;2024-02-28T10:18:15;102283.59;;;6.83;47.66
50684;BME280;36654;45.042;38.994;2024-02-28T10:20:42;102283.91;;;6.72;47.77
50684;BME280;36654;45.042;38.994;2024-02-28T10:23:07;102294.38;;;6.88;47.70
50684;BME280;36654;45.042;38.994;2024-02-28T10:25:47;102289.19;;;6.89;47.70
50684;BME280;36654;45.042;38.994;2024-02-28T10:28:14;102289.19;;;6.89;47.86
50684;BME280;36654;45.042;38.994;2024-02-28T10:30:40;102255.06;;;6.75;47.79
50684;BME280;36654;45.042;38.994;2024-02-28T10:33:13;102295.00;;;7.00;47.52
50684;BME280;36654;45.042;38.994;2024-02-28T10:35:41;102271.13;;;6.97;47.44
50684;BME280;36654;45.042;38.994;2024-02-28T10:38:13;102279.34;;;7.03;47.54
50684;BME280;36654;45.042;38.994;2024-02-28T10:40:39;102287.94;;;6.99;47.70
50684;BME280;36654;45.042;38.994;2024-02-28T10:43:10;102265.47;;;6.89;47.75
50684;BME280;36654;45.042;38.994;2024-02-28T10:45:37;102275.28;;;6.92;47.90
50684;BME280;36654;45.042;38.994;2024-02-28T10:48:06;102286.72;;;7.10;47.61
50684;BME280;36654;45.042;38.994;2024-02-28T10:50:33;102272.72;;;7.11;47.44
50684;BME280;36654;45.042;38.994;2024-02-28T10:53:03;102288.09;;;7.20;47.37
50684;BME280;36654;45.042;38.994;2024-02-28T10:55:39;102260.34;;;7.10;47.30
50684;BME280;36654;45.042;38.994;2024-02-28T10:58:09;102270.75;;;7.25;47.21
50684;BME280;36654;45.042;38.994;2024-02-28T11:00:42;102260.34;;;7.28;47.09
50684;BME280;36654;45.042;38.994;2024-02-28T11:03:15;102261.41;;;7.32;46.97
50684;BME280;36654;45.042;38.994;2024-02-28T11:05:43;102271.28;;;7.36;46.86
50684;BME280;36654;45.042;38.994;2024-02-28T11:08:22;102262.41;;;7.34;46.78
50684;BME280;36654;45.042;38.994;2024-02-28T11:10:54;102221.91;;;7.16;47.04
50684;BME280;36654;45.042;38.994;2024-02-28T11:13:27;102245.72;;;7.35;47.04
50684;BME280;36654;45.042;38.994;2024-02-28T11:15:52;102257.16;;;7.53;46.94
50684;BME280;36654;45.042;38.994;2024-02-28T11:18:18;102260.91;;;7.59;46.76
50684;BME280;36654;45.042;38.994;2024-02-28T11:20:44;102229.25;;;7.59;46.40
50684;BME280;36654;45.042;38.994;2024-02-28T11:23:14;102239.97;;;7.62;46.29
50684;BME280;36654;45.042;38.994;2024-02-28T11:25:42;102270.72;;;7.79;46.51
50684;BME280;36654;45.042;38.994;2024-02-28T11:28:08;102260.41;;;7.85;45.96
50684;BME280;36654;45.042;38.994;2024-02-28T11:30:34;102257.78;;;7.85;45.77
50684;BME280;36654;45.042;38.994;2024-02-28T11:32:59;102241.13;;;7.86;45.86
50684;BME280;36654;45.042;38.994;2024-02-28T11:35:26;102238.84;;;7.94;45.76
50684;BME280;36654;45.042;38.994;2024-02-28T11:37:54;102239.00;;;7.98;45.97
50684;BME280;36654;45.042;38.994;2024-02-28T11:40:25;102224.28;;;8.04;45.37
50684;BME280;36654;45.042;38.994;2024-02-28T11:42:54;102211.91;;;7.83;45.17
50684;BME280;36654;45.042;38.994;2024-02-28T11:45:22;102227.00;;;8.05;45.33
50684;BME280;36654;45.042;38.994;2024-02-28T11:47:47;102230.00;;;8.13;45.34
50684;BME280;36654;45.042;38.994;2024-02-28T11:50:13;102231.38;;;8.05;45.01
50684;BME280;36654;45.042;38.994;2024-02-28T11:52:44;102211.63;;;8.16;44.92
50684;BME280;36654;45.042;38.994;2024-02-28T11:55:09;102226.78;;;8.20;45.04
50684;BME280;36654;45.042;38.994;2024-02-28T11:57:35;102225.00;;;8.19;44.98
50684;BME280;36654;45.042;38.994;2024-02-28T12:00:04;102240.41;;;8.29;44.75
50684;BME280;36654;45.042;38.994;2024-02-28T12:02:30;102234.41;;;8.33;44.55
50684;BME280;36654;45.042;38.994;2024-02-28T12:05:01;102223.59;;;8.27;44.65
50684;BME280;36654;45.042;38.994;2024-02-28T12:07:26;102205.78;;;8.23;44.78
50684;BME280;36654;45.042;38.994;2024-02-28T12:09:54;102221.19;;;8.33;44.70
50684;BME280;36654;45.042;38.994;2024-02-28T12:12:21;102218.75;;;8.38;44.54
50684;BME280;36654;45.042;38.994;2024-02-28T12:14:49;102212.50;;;8.36;44.63
50684;BME280;36654;45.042;38.994;2024-02-28T12:17:15;102242.03;;;8.45;44.60
50684;BME280;36654;45.042;38.994;2024-02-28T12:19:41;102235.00;;;8.46;44.38
50684;BME280;36654;45.042;38.994;2024-02-28T12:22:08;102219.00;;;8.42;44.46
50684;BME280;36654;45.042;38.994;2024-02-28T12:24:34;102234.16;;;8.47;44.66
50684;BME280;36654;45.042;38.994;2024-02-28T12:26:59;102224.00;;;8.36;44.53
50684;BME280;36654;45.042;38.994;2024-02-28T12:29:25;102220.97;;;8.47;44.36
50684;BME280;36654;45.042;38.994;2024-02-28T12:31:51;102216.78;;;8.52;44.13
50684;BME280;36654;45.042;38.994;2024-02-28T12:34:16;102220.56;;;8.58;43.99
50684;BME280;36654;45.042;38.994;2024-02-28T12:36:42;102239.38;;;8.66;43.85
50684;BME280;36654;45.042;38.994;2024-02-28T12:39:08;102229.66;;;8.65;43.71
50684;BME280;36654;45.042;38.994;2024-02-28T12:41:40;102224.38;;;8.65;43.52
50684;BME280;36654;45.042;38.994;2024-02-28T12:44:06;102224.38;;;8.65;43.64
50684;BME280;36654;45.042;38.994;2024-02-28T12:46:34;102209.63;;;8.70;43.68